createdAt,value
2023-04-26T00:00:50.404Z,100608.34
2023-04-26T00:03:20.821Z,100604.09
2023-04-26T00:05:53.634Z,100602.72
2023-04-26T00:08:23.639Z,100604.97
2023-04-26T00:10:53.590Z,100607.56
2023-04-26T00:13:23.736Z,100606.97
2023-04-26T00:15:53.791Z,100606.97
2023-04-26T00:18:23.874Z,100604.16
2023-04-26T00:20:56.677Z,100608.09
2023-04-26T00:23:26.762Z,100613.09
2023-04-26T00:25:56.675Z,100612.09
2023-04-26T00:28:26.637Z,100604.50
2023-04-26T00:30:58.179Z,100611.25
2023-04-26T00:33:28.205Z,100611.38
2023-04-26T00:36:00.700Z,100604.75
2023-04-26T00:38:31.777Z,100598.66
2023-04-26T00:41:01.672Z,100604.50
2023-04-26T00:43:31.696Z,100600.38
2023-04-26T00:46:01.937Z,100590.78
2023-04-26T00:48:32.420Z,100596.16
2023-04-26T00:51:05.766Z,100598.72
2023-04-26T00:53:35.741Z,100606.50
2023-04-26T00:56:06.955Z,100605.97
2023-04-26T00:58:37.111Z,100611.06
2023-04-26T01:01:08.018Z,100606.09
2023-04-26T01:03:40.826Z,100605.09
2023-04-26T01:06:14.259Z,100602.41
2023-04-26T01:08:44.811Z,100600.31
2023-04-26T01:11:14.915Z,100595.91
2023-04-26T01:13:45.126Z,100597.91
2023-04-26T01:16:19.342Z,100602.41
2023-04-26T01:18:54.343Z,100600.81
2023-04-26T01:21:27.908Z,100599.56
2023-04-26T01:24:01.496Z,100603.13
2023-04-26T01:26:31.808Z,100605.25
2023-04-26T01:29:01.786Z,100601.16
2023-04-26T01:31:31.797Z,100591.81
2023-04-26T01:34:01.754Z,100594.94
2023-04-26T01:36:32.705Z,100585.47
2023-04-26T01:39:05.875Z,100591.53
2023-04-26T01:41:36.015Z,100594.69
2023-04-26T01:44:05.986Z,100586.31
2023-04-26T01:46:36.170Z,100597.19
2023-04-26T01:49:06.245Z,100591.81
2023-04-26T01:51:37.163Z,100601.75
2023-04-26T01:54:12.515Z,100595.53
2023-04-26T01:56:42.499Z,100592.13
2023-04-26T01:59:12.490Z,100593.56
2023-04-26T02:01:44.781Z,100592.13
2023-04-26T02:04:14.864Z,100604.16
2023-04-26T02:06:45.127Z,100599.22
2023-04-26T02:09:18.352Z,100605.72
2023-04-26T02:11:48.465Z,100605.16
2023-04-26T02:14:18.433Z,100598.94
2023-04-26T02:16:48.369Z,100599.50
2023-04-26T02:19:18.374Z,100594.97
2023-04-26T02:21:59.559Z,100604.31
2023-04-26T02:24:33.470Z,100605.00
2023-04-26T02:27:05.677Z,100606.00
2023-04-26T02:29:44.237Z,100603.03
2023-04-26T02:32:14.998Z,100603.31
2023-04-26T02:34:45.620Z,100608.97
2023-04-26T02:37:15.674Z,100613.19
2023-04-26T02:39:48.221Z,100609.06
2023-04-26T02:42:18.197Z,100606.53
2023-04-26T02:44:48.243Z,100614.19
2023-04-26T02:47:18.612Z,100605.16
2023-04-26T02:49:49.760Z,100609.34
2023-04-26T02:52:19.719Z,100610.63
2023-04-26T02:54:53.314Z,100618.38
2023-04-26T02:57:24.009Z,100622.19
2023-04-26T02:59:53.998Z,100618.34
2023-04-26T03:02:24.487Z,100616.81
2023-04-26T03:04:54.722Z,100618.63
2023-04-26T03:07:25.132Z,100615.50
2023-04-26T03:09:58.094Z,100609.00
2023-04-26T03:12:28.073Z,100613.53
2023-04-26T03:14:58.050Z,100608.13
2023-04-26T03:17:28.945Z,100614.06
2023-04-26T03:20:01.844Z,100612.06
2023-04-26T03:22:32.633Z,100616.00
2023-04-26T03:25:05.696Z,100607.78
2023-04-26T03:27:36.858Z,100612.88
2023-04-26T03:30:07.976Z,100606.59
2023-04-26T03:32:39.529Z,100614.72
2023-04-26T03:35:10.599Z,100621.78
2023-04-26T03:37:41.953Z,100617.50
2023-04-26T03:40:17.963Z,100626.78
2023-04-26T03:42:48.677Z,100620.84
2023-04-26T03:45:19.176Z,100626.38
2023-04-26T03:47:49.417Z,100620.69
2023-04-26T03:50:19.554Z,100628.56
2023-04-26T03:52:50.073Z,100621.22
2023-04-26T03:55:22.742Z,100619.28
2023-04-26T03:57:54.079Z,100614.47
2023-04-26T04:00:26.432Z,100610.94
2023-04-26T04:02:56.596Z,100611.13
2023-04-26T04:05:28.443Z,100613.28
2023-04-26T04:07:59.290Z,100611.84
2023-04-26T04:10:32.381Z,100613.56
2023-04-26T04:13:02.548Z,100611.59
2023-04-26T04:15:33.456Z,100613.81
2023-04-26T04:18:04.534Z,100619.75
2023-04-26T04:20:34.652Z,100622.84
2023-04-26T04:23:07.856Z,100619.22
2023-04-26T04:25:41.519Z,100617.69
2023-04-26T04:28:14.752Z,100612.97
2023-04-26T04:30:46.490Z,100615.50
2023-04-26T04:33:17.864Z,100616.94
2023-04-26T04:35:48.302Z,100620.84
2023-04-26T04:38:18.470Z,100622.25
2023-04-26T04:40:53.606Z,100624.13
2023-04-26T04:43:23.664Z,100630.91
2023-04-26T04:45:54.050Z,100637.22
2023-04-26T04:48:24.046Z,100635.22
2023-04-26T04:50:54.092Z,100644.00
2023-04-26T04:53:24.290Z,100631.00
2023-04-26T04:55:57.166Z,100641.50
2023-04-26T04:58:27.620Z,100648.03
2023-04-26T05:01:01.385Z,100642.66
2023-04-26T05:03:34.236Z,100644.13
2023-04-26T05:06:05.943Z,100648.09
2023-04-26T05:08:36.588Z,100647.06
2023-04-26T05:11:11.173Z,100650.75
2023-04-26T05:13:41.411Z,100656.19
2023-04-26T05:16:11.408Z,100656.88
2023-04-26T05:18:41.965Z,100651.00
2023-04-26T05:21:12.537Z,100644.91
2023-04-26T05:23:43.227Z,100651.31
2023-04-26T05:26:18.063Z,100653.16
2023-04-26T05:28:48.008Z,100660.22
2023-04-26T05:31:42.036Z,100662.66
2023-04-26T05:34:34.977Z,100667.41
2023-04-26T05:37:05.071Z,100659.53
2023-04-26T05:39:35.873Z,100666.56
2023-04-26T05:42:08.604Z,100670.13
2023-04-26T05:44:39.311Z,100670.28
2023-04-26T05:47:09.370Z,100670.00
2023-04-26T05:49:39.453Z,100668.47
2023-04-26T05:52:09.482Z,100679.28
2023-04-26T05:54:40.287Z,100673.72
2023-04-26T05:57:12.920Z,100674.88
2023-04-26T05:59:43.262Z,100678.78
2023-04-26T06:02:13.826Z,100689.50
2023-04-26T06:04:43.938Z,100691.47
2023-04-26T06:07:17.485Z,100692.91
2023-04-26T06:09:49.992Z,100695.19
2023-04-26T06:12:22.616Z,100694.78
2023-04-26T06:14:52.921Z,100689.00
2023-04-26T06:17:25.483Z,100705.09
2023-04-26T06:19:55.665Z,100696.50
2023-04-26T06:22:25.900Z,100697.22
2023-04-26T06:24:57.241Z,100694.28
2023-04-26T06:27:29.871Z,100701.75
2023-04-26T06:30:00.192Z,100690.78
2023-04-26T06:32:30.653Z,100688.47
2023-04-26T06:35:00.631Z,100691.59
2023-04-26T06:37:31.232Z,100688.50
2023-04-26T06:40:02.264Z,100688.38
2023-04-26T06:42:34.937Z,100689.78
2023-04-26T06:45:25.426Z,100690.38
2023-04-26T06:47:55.541Z,100688.53
2023-04-26T06:50:27.670Z,100685.97
2023-04-26T06:52:57.664Z,100686.28
2023-04-26T06:55:27.838Z,100683.88
2023-04-26T06:58:00.506Z,100684.88
2023-04-26T07:00:30.857Z,100690.81
2023-04-26T07:03:01.133Z,100681.19
2023-04-26T07:05:31.534Z,100678.09
2023-04-26T07:08:01.606Z,100677.91
2023-04-26T07:10:33.089Z,100667.63
2023-04-26T07:13:08.256Z,100670.69
2023-04-26T07:15:39.533Z,100670.69
2023-04-26T07:18:09.663Z,100661.06
2023-04-26T07:20:39.620Z,100671.41
2023-04-26T07:23:09.548Z,100664.88
2023-04-26T07:25:39.545Z,100659.75
2023-04-26T07:28:12.088Z,100660.44
2023-04-26T07:30:42.038Z,100665.06
2023-04-26T07:33:12.184Z,100669.19
2023-04-26T07:35:42.186Z,100674.84
2023-04-26T07:38:14.623Z,100669.19
2023-04-26T07:40:44.568Z,100670.84
2023-04-26T07:43:17.449Z,100668.63
2023-04-26T07:45:47.524Z,100669.72
2023-04-26T07:48:18.162Z,100667.97
2023-04-26T07:50:48.442Z,100668.00
2023-04-26T07:53:18.390Z,100673.97
2023-04-26T07:55:48.352Z,100668.38
2023-04-26T07:58:21.715Z,100670.19
2023-04-26T08:00:51.975Z,100673.38
2023-04-26T08:03:22.137Z,100669.28
2023-04-26T08:05:54.178Z,100665.50
2023-04-26T08:08:24.874Z,100670.78
2023-04-26T08:10:55.000Z,100671.59
2023-04-26T08:13:29.319Z,100665.47
2023-04-26T08:15:59.696Z,100660.81
2023-04-26T08:18:29.802Z,100667.66
2023-04-26T08:20:59.760Z,100661.75
2023-04-26T08:23:29.935Z,100664.44
2023-04-26T08:25:59.921Z,100673.22
2023-04-26T08:28:32.999Z,100662.53
2023-04-26T08:31:03.004Z,100669.69
2023-04-26T08:33:33.239Z,100668.84
2023-04-26T08:36:03.971Z,100675.53
2023-04-26T08:38:33.951Z,100676.81
2023-04-26T08:41:05.222Z,100669.00
2023-04-26T08:43:41.249Z,100663.59
2023-04-26T08:46:18.515Z,100660.63
2023-04-26T08:48:57.657Z,100653.50
2023-04-26T08:51:29.174Z,100656.59
2023-04-26T08:54:04.114Z,100654.09
2023-04-26T08:56:36.678Z,100647.72
2023-04-26T08:59:09.600Z,100647.25
2023-04-26T09:01:42.984Z,100644.97
2023-04-26T09:04:13.557Z,100638.06
2023-04-26T09:06:44.651Z,100631.19
2023-04-26T09:09:21.359Z,100632.84
2023-04-26T09:11:59.794Z,100627.66
2023-04-26T09:14:32.548Z,100640.78
2023-04-26T09:17:03.523Z,100632.56
2023-04-26T09:19:42.699Z,100628.22
2023-04-26T09:22:12.800Z,100625.00
2023-04-26T09:24:53.769Z,100633.47
2023-04-26T09:27:24.376Z,100633.63
2023-04-26T09:30:09.692Z,100631.97
2023-04-26T09:32:51.499Z,100621.81
2023-04-26T09:35:33.995Z,100622.97
2023-04-26T09:38:10.937Z,100626.22
2023-04-26T09:40:44.831Z,100630.47
2023-04-26T09:43:17.045Z,100621.09
2023-04-26T09:45:51.946Z,100626.63
2023-04-26T09:48:26.032Z,100617.13
2023-04-26T09:50:58.527Z,100615.75
2023-04-26T09:53:34.838Z,100625.56
2023-04-26T09:56:13.933Z,100617.28
2023-04-26T09:59:01.388Z,100624.34
2023-04-26T10:01:35.145Z,100623.78
2023-04-26T10:04:06.117Z,100621.47
2023-04-26T10:06:36.724Z,100628.63
2023-04-26T10:09:09.313Z,100618.19
2023-04-26T10:11:41.547Z,100614.66
2023-04-26T10:14:11.995Z,100601.50
2023-04-26T10:16:47.548Z,100605.28
2023-04-26T10:19:17.872Z,100600.56
2023-04-26T10:21:51.579Z,100597.56
2023-04-26T10:24:22.266Z,100599.47
2023-04-26T10:26:53.803Z,100597.03
2023-04-26T10:29:24.978Z,100596.16
2023-04-26T10:32:16.665Z,100597.94
2023-04-26T10:34:47.506Z,100596.91
2023-04-26T10:37:18.978Z,100595.63
2023-04-26T10:39:50.284Z,100596.34
2023-04-26T10:42:24.675Z,100590.44
2023-04-26T10:44:56.850Z,100584.78
2023-04-26T10:47:32.279Z,100590.88
2023-04-26T10:50:10.803Z,100595.84
2023-04-26T10:53:04.989Z,100592.63
2023-04-26T10:55:43.021Z,100577.88
2023-04-26T10:58:29.419Z,100576.91
2023-04-26T11:01:11.801Z,100570.06
2023-04-26T11:03:45.726Z,100574.28
2023-04-26T11:06:16.497Z,100560.06
2023-04-26T11:08:46.690Z,100556.34
2023-04-26T11:11:19.622Z,100556.34
2023-04-26T11:13:50.303Z,100546.09
2023-04-26T11:16:21.034Z,100542.31
2023-04-26T11:18:57.675Z,100538.47
2023-04-26T11:21:29.277Z,100530.22
2023-04-26T11:23:59.328Z,100533.78
2023-04-26T11:26:37.439Z,100525.44
2023-04-26T11:29:13.735Z,100524.69
2023-04-26T11:31:43.843Z,100522.44
2023-04-26T11:34:17.159Z,100517.72
2023-04-26T11:36:47.962Z,100518.38
2023-04-26T11:39:18.250Z,100513.19
2023-04-26T11:41:48.303Z,100513.06
2023-04-26T11:44:22.495Z,100508.78
2023-04-26T11:46:53.573Z,100501.63
2023-04-26T11:49:29.194Z,100501.34
2023-04-26T11:51:59.789Z,100508.31
2023-04-26T11:54:31.752Z,100504.97
2023-04-26T11:57:03.026Z,100503.25
2023-04-26T11:59:34.005Z,100509.59
2023-04-26T12:02:10.357Z,100510.56
2023-04-26T12:04:45.022Z,100516.75
2023-04-26T12:07:15.263Z,100518.88
2023-04-26T12:09:45.271Z,100515.44
2023-04-26T12:12:15.454Z,100506.66
2023-04-26T12:14:45.922Z,100501.88
2023-04-26T12:17:18.472Z,100498.59
2023-04-26T12:19:53.280Z,100498.78
2023-04-26T12:22:24.760Z,100501.31
2023-04-26T12:25:08.103Z,100497.09
2023-04-26T12:27:39.721Z,100492.59
2023-04-26T12:30:11.396Z,100500.34
2023-04-26T12:32:42.097Z,100502.03
2023-04-26T12:35:14.890Z,100495.09
2023-04-26T12:37:44.970Z,100488.91
2023-04-26T12:40:16.387Z,100486.75
2023-04-26T12:42:46.484Z,100486.34
2023-04-26T12:45:16.856Z,100481.66
2023-04-26T12:47:47.329Z,100480.28
2023-04-26T12:50:20.538Z,100476.84
2023-04-26T12:52:50.606Z,100479.72
2023-04-26T12:55:21.810Z,100476.06
2023-04-26T12:57:51.945Z,100481.09
2023-04-26T13:00:23.194Z,100497.09
2023-04-26T13:02:53.724Z,100484.91
2023-04-26T13:05:27.452Z,100477.56
2023-04-26T13:07:57.668Z,100489.94
2023-04-26T13:10:28.221Z,100488.91
2023-04-26T13:12:58.582Z,100480.13
2023-04-26T13:15:30.166Z,100469.59
2023-04-26T13:18:00.297Z,100481.81
2023-04-26T13:20:32.972Z,100472.72
2023-04-26T13:23:03.183Z,100477.34
2023-04-26T13:25:33.209Z,100458.19
2023-04-26T13:28:03.296Z,100460.25
2023-04-26T13:30:36.339Z,100462.84
2023-04-26T13:33:06.460Z,100460.28
2023-04-26T13:35:39.109Z,100467.06
2023-04-26T13:38:13.953Z,100466.84
2023-04-26T13:40:44.866Z,100459.44
2023-04-26T13:43:14.974Z,100455.66
2023-04-26T13:45:45.005Z,100443.84
2023-04-26T13:48:15.326Z,100450.97
2023-04-26T13:50:48.311Z,100447.63
2023-04-26T13:53:19.869Z,100447.31
2023-04-26T13:55:49.919Z,100458.78
2023-04-26T13:58:20.050Z,100446.53
2023-04-26T14:00:50.213Z,100452.09
2023-04-26T14:03:20.435Z,100457.06
2023-04-26T14:05:53.245Z,100442.50
2023-04-26T14:08:23.399Z,100433.13
2023-04-26T14:10:53.568Z,100439.50
2023-04-26T14:13:23.713Z,100430.53
2023-04-26T14:15:53.878Z,100434.16
2023-04-26T14:18:23.951Z,100418.00
2023-04-26T14:20:56.790Z,100425.06
2023-04-26T14:23:27.074Z,100426.28
2023-04-26T14:25:57.136Z,100425.09
2023-04-26T14:28:27.297Z,100431.50
2023-04-26T14:30:57.409Z,100440.19
2023-04-26T14:33:27.592Z,100422.81
2023-04-26T14:36:00.212Z,100431.59
2023-04-26T14:38:30.353Z,100419.84
2023-04-26T14:41:00.401Z,100416.69
2023-04-26T14:43:30.485Z,100426.50
2023-04-26T14:46:00.603Z,100415.78
2023-04-26T14:48:30.679Z,100411.41
2023-04-26T14:51:06.690Z,100413.97
2023-04-26T14:53:36.788Z,100415.13
2023-04-26T14:56:07.819Z,100406.63
2023-04-26T14:58:37.995Z,100401.03
2023-04-26T15:01:08.213Z,100391.47
2023-04-26T15:03:38.621Z,100392.28
2023-04-26T15:06:11.675Z,100388.91
2023-04-26T15:08:41.749Z,100391.53
2023-04-26T15:11:11.835Z,100390.53
2023-04-26T15:13:41.963Z,100390.09
2023-04-26T15:16:12.078Z,100382.19
2023-04-26T15:18:42.170Z,100388.16
2023-04-26T15:21:19.239Z,100373.09
2023-04-26T15:23:49.360Z,100376.78
2023-04-26T15:26:20.039Z,100371.53
2023-04-26T15:28:50.051Z,100378.25
2023-04-26T15:31:20.129Z,100387.16
2023-04-26T15:33:50.163Z,100385.03
2023-04-26T15:36:24.482Z,100369.59
2023-04-26T15:38:54.612Z,100369.91
2023-04-26T15:41:24.622Z,100373.91
2023-04-26T15:43:57.498Z,100372.25
2023-04-26T15:46:27.650Z,100370.63
2023-04-26T15:48:57.847Z,100363.13
2023-04-26T15:51:30.711Z,100362.97
2023-04-26T15:54:00.913Z,100368.50
2023-04-26T15:56:31.089Z,100367.97
2023-04-26T15:59:01.172Z,100363.66
2023-04-26T16:01:31.650Z,100364.44
2023-04-26T16:04:01.871Z,100367.50
2023-04-26T16:06:35.806Z,100365.22
2023-04-26T16:09:22.966Z,100356.88
2023-04-26T16:11:54.650Z,100357.47
2023-04-26T16:14:24.837Z,100358.38
2023-04-26T16:16:54.782Z,100362.72
2023-04-26T16:19:24.782Z,100353.38
2023-04-26T16:21:57.414Z,100361.16
2023-04-26T16:24:27.461Z,100363.63
2023-04-26T16:26:57.419Z,100357.66
2023-04-26T16:29:27.995Z,100351.38
2023-04-26T16:31:58.099Z,100357.03
2023-04-26T16:34:28.441Z,100355.00
2023-04-26T16:37:01.088Z,100364.88
2023-04-26T16:39:31.909Z,100363.03
2023-04-26T16:42:02.400Z,100355.41
2023-04-26T16:44:32.716Z,100374.00
2023-04-26T16:47:02.935Z,100371.06
2023-04-26T16:49:32.893Z,100372.16
2023-04-26T16:52:05.572Z,100366.13
2023-04-26T16:54:35.635Z,100363.72
2023-04-26T16:57:06.174Z,100364.31
2023-04-26T16:59:36.411Z,100363.88
2023-04-26T17:02:06.904Z,100359.75
2023-04-26T17:04:37.247Z,100359.38
2023-04-26T17:07:10.134Z,100362.38
2023-04-26T17:09:40.141Z,100359.47
2023-04-26T17:12:10.198Z,100354.38
2023-04-26T17:14:41.188Z,100359.31
2023-04-26T17:17:11.180Z,100365.31
2023-04-26T17:19:41.291Z,100373.75
2023-04-26T17:22:13.946Z,100376.50
2023-04-26T17:24:43.949Z,100375.34
2023-04-26T17:27:13.989Z,100372.81
2023-04-26T17:29:43.970Z,100370.66
2023-04-26T17:32:14.163Z,100373.94
2023-04-26T17:34:45.724Z,100378.34
2023-04-26T17:37:18.441Z,100372.66
2023-04-26T17:39:48.452Z,100380.84
2023-04-26T17:42:18.633Z,100381.69
2023-04-26T17:44:48.676Z,100377.09
2023-04-26T17:47:18.768Z,100389.94
2023-04-26T17:49:48.776Z,100388.25
2023-04-26T17:52:21.362Z,100396.28
2023-04-26T17:54:51.643Z,100397.09
2023-04-26T17:57:23.961Z,100402.78
2023-04-26T17:59:54.664Z,100399.81
2023-04-26T18:02:24.838Z,100389.91
2023-04-26T18:04:56.758Z,100393.28
2023-04-26T18:07:29.555Z,100404.56
2023-04-26T18:09:59.717Z,100412.03
2023-04-26T18:12:30.922Z,100403.59
2023-04-26T18:15:01.128Z,100414.28
2023-04-26T18:17:31.243Z,100413.63
2023-04-26T18:20:01.949Z,100421.00
2023-04-26T18:22:34.664Z,100419.25
2023-04-26T18:25:04.957Z,100418.31
2023-04-26T18:27:35.437Z,100419.22
2023-04-26T18:30:05.687Z,100417.09
2023-04-26T18:32:35.919Z,100424.34
2023-04-26T18:35:07.502Z,100424.47
2023-04-26T18:37:41.355Z,100431.44
2023-04-26T18:40:12.855Z,100432.16
2023-04-26T18:42:45.132Z,100435.97
2023-04-26T18:45:15.938Z,100438.31
2023-04-26T18:47:45.942Z,100445.72
2023-04-26T18:50:15.937Z,100441.50
2023-04-26T18:52:48.637Z,100450.03
2023-04-26T18:55:18.868Z,100452.44
2023-04-26T18:57:49.323Z,100456.28
2023-04-26T19:00:20.241Z,100457.91
2023-04-26T19:02:51.361Z,100456.03
2023-04-26T19:05:21.759Z,100456.78
2023-04-26T19:07:57.321Z,100462.41
2023-04-26T19:10:27.448Z,100464.38
2023-04-26T19:12:57.430Z,100476.56
2023-04-26T19:15:27.632Z,100474.28
2023-04-26T19:17:58.720Z,100487.59
2023-04-26T19:20:29.828Z,100478.03
2023-04-26T19:23:02.488Z,100485.63
2023-04-26T19:25:32.552Z,100489.81
2023-04-26T19:28:04.882Z,100488.34
2023-04-26T19:30:48.850Z,100485.88
2023-04-26T19:33:18.892Z,100490.19
2023-04-26T19:35:49.050Z,100492.25
2023-04-26T19:38:22.113Z,100498.03
2023-04-26T19:40:53.279Z,100495.19
2023-04-26T19:43:23.975Z,100506.97
2023-04-26T19:45:54.227Z,100503.97
2023-04-26T19:48:24.433Z,100504.63
2023-04-26T19:50:54.550Z,100509.91
2023-04-26T19:53:27.867Z,100505.59
2023-04-26T19:55:57.805Z,100502.16
2023-04-26T19:58:27.838Z,100499.16
2023-04-26T20:00:58.059Z,100508.03
2023-04-26T20:03:28.490Z,100504.53
2023-04-26T20:05:58.773Z,100501.44
2023-04-26T20:08:31.656Z,100509.25
2023-04-26T20:11:05.216Z,100503.28
2023-04-26T20:13:36.032Z,100503.16
2023-04-26T20:16:06.552Z,100501.47
2023-04-26T20:18:37.125Z,100508.28
2023-04-26T20:21:07.220Z,100509.75
2023-04-26T20:23:40.003Z,100508.97
2023-04-26T20:26:10.021Z,100513.44
2023-04-26T20:28:40.175Z,100504.31
2023-04-26T20:31:10.257Z,100509.66
2023-04-26T20:33:40.357Z,100510.56
2023-04-26T20:36:11.395Z,100512.00
2023-04-26T20:38:44.222Z,100509.25
2023-04-26T20:41:14.289Z,100501.69
2023-04-26T20:43:44.542Z,100506.38
2023-04-26T20:46:14.562Z,100507.56
2023-04-26T20:48:44.596Z,100502.19
2023-04-26T20:51:14.628Z,100504.44
2023-04-26T20:53:47.302Z,100505.91
2023-04-26T20:56:17.246Z,100496.19
2023-04-26T20:58:47.390Z,100499.34
2023-04-26T21:01:17.464Z,100501.75
2023-04-26T21:03:47.685Z,100511.03
2023-04-26T21:06:18.106Z,100508.75
2023-04-26T21:08:50.892Z,100510.84
2023-04-26T21:11:20.928Z,100502.75
2023-04-26T21:13:50.989Z,100499.00
2023-04-26T21:16:21.149Z,100512.09
2023-04-26T21:18:51.266Z,100504.97
2023-04-26T21:21:21.875Z,100509.75
2023-04-26T21:23:54.504Z,100507.69
2023-04-26T21:26:24.615Z,100514.69
2023-04-26T21:28:54.623Z,100513.97
2023-04-26T21:31:24.731Z,100520.25
2023-04-26T21:33:54.798Z,100513.47
2023-04-26T21:36:24.796Z,100510.00
2023-04-26T21:38:57.437Z,100510.16
2023-04-26T21:41:30.296Z,100518.94
2023-04-26T21:44:00.307Z,100514.22
2023-04-26T21:46:30.932Z,100517.22
2023-04-26T21:49:00.950Z,100510.50
2023-04-26T21:51:31.436Z,100516.25
2023-04-26T21:54:04.032Z,100514.56
2023-04-26T21:56:34.105Z,100521.81
2023-04-26T21:59:04.885Z,100527.94
2023-04-26T22:01:34.959Z,100522.22
2023-04-26T22:04:05.096Z,100529.16
2023-04-26T22:06:35.266Z,100526.59
2023-04-26T22:09:09.773Z,100539.31
2023-04-26T22:11:40.095Z,100527.13
2023-04-26T22:14:10.194Z,100524.06
2023-04-26T22:16:40.196Z,100526.41
2023-04-26T22:19:10.708Z,100527.78
2023-04-26T22:21:41.044Z,100526.09
2023-04-26T22:24:13.763Z,100526.44
2023-04-26T22:26:43.728Z,100524.41
2023-04-26T22:29:13.729Z,100518.69
2023-04-26T22:31:43.937Z,100522.25
2023-04-26T22:34:13.984Z,100524.28
2023-04-26T22:36:43.937Z,100524.97
2023-04-26T22:39:17.360Z,100528.00
2023-04-26T22:41:47.382Z,100525.63
2023-04-26T22:44:17.582Z,100523.59
2023-04-26T22:46:47.561Z,100528.53
2023-04-26T22:49:17.538Z,100532.25
2023-04-26T22:51:57.354Z,100527.00
2023-04-26T22:54:38.183Z,100529.19
2023-04-26T22:57:08.457Z,100530.56
2023-04-26T22:59:38.387Z,100534.59
2023-04-26T23:02:08.364Z,100535.44
2023-04-26T23:04:38.349Z,100540.00
2023-04-26T23:07:08.360Z,100538.66
2023-04-26T23:09:41.245Z,100541.88
2023-04-26T23:12:11.520Z,100533.44
2023-04-26T23:14:41.567Z,100540.38
2023-04-26T23:17:13.030Z,100542.75
2023-04-26T23:19:43.204Z,100546.09
2023-04-26T23:22:13.206Z,100542.06
2023-04-26T23:24:45.761Z,100537.50
2023-04-26T23:27:15.910Z,100533.28
2023-04-26T23:29:45.973Z,100540.44
2023-04-26T23:32:16.372Z,100540.25
2023-04-26T23:34:46.748Z,100536.53
2023-04-26T23:37:16.903Z,100547.50
2023-04-26T23:39:49.462Z,100536.66
2023-04-26T23:42:19.449Z,100541.22
2023-04-26T23:44:49.670Z,100545.09
2023-04-26T23:47:19.774Z,100544.09
2023-04-26T23:49:49.779Z,100536.34
2023-04-26T23:52:19.806Z,100537.69
2023-04-26T23:54:52.378Z,100537.03
2023-04-26T23:57:22.373Z,100541.06
2023-04-26T23:59:52.857Z,100531.78
